sensor_id;sensor_type;location;lat;lon;timestamp;pressure;altitude;pressure_sealevel;temperature;humidity
25869;BME280;13688;53.154;18.136;2023-02-12T00:03:44;102483.92;;;-0.86;100.00
25869;BME280;13688;53.154;18.136;2023-02-12T00:09:07;102496.23;;;-0.88;100.00
25869;BME280;13688;53.154;18.136;2023-02-12T00:14:29;102498.03;;;-0.96;100.00
25869;BME280;13688;53.154;18.136;2023-02-12T00:19:54;102506.84;;;-1.03;100.00
25869;BME280;13688;53.154;18.136;2023-02-12T00:25:16;102509.45;;;-0.99;100.00
25869;BME280;13688;53.154;18.136;2023-02-12T00:30:38;102534.09;;;-0.97;100.00
25869;BME280;13688;53.154;18.136;2023-02-12T00:36:02;102547.31;;;-1.03;100.00
25869;BME280;13688;53.154;18.136;2023-02-12T00:41:27;102549.97;;;-1.06;100.00
25869;BME280;13688;53.154;18.136;2023-02-12T00:46:50;102552.59;;;-1.21;100.00
25869;BME280;13688;53.154;18.136;2023-02-12T00:52:12;102563.14;;;-1.32;100.00
25869;BME280;13688;53.154;18.136;2023-02-12T00:57:34;102574.56;;;-1.40;100.00
25869;BME280;13688;53.154;18.136;2023-02-12T01:02:56;102581.60;;;-1.39;100.00
25869;BME280;13688;53.154;18.136;2023-02-12T01:08:20;102593.91;;;-1.40;100.00
25869;BME280;13688;53.154;18.136;2023-02-12T01:13:43;102609.70;;;-1.58;100.00
25869;BME280;13688;53.154;18.136;2023-02-12T01:19:05;102614.07;;;-1.72;100.00
25869;BME280;13688;53.154;18.136;2023-02-12T01:24:27;102613.16;;;-1.79;100.00
25869;BME280;13688;53.154;18.136;2023-02-12T01:29:50;102614.91;;;-1.75;100.00
25869;BME280;13688;53.154;18.136;2023-02-12T01:35:13;102627.22;;;-1.76;100.00
25869;BME280;13688;53.154;18.136;2023-02-12T01:40:35;102628.98;;;-1.75;100.00
25869;BME280;13688;53.154;18.136;2023-02-12T01:45:58;102628.13;;;-1.67;100.00
25869;BME280;13688;53.154;18.136;2023-02-12T01:51:22;102624.64;;;-1.56;100.00
25869;BME280;13688;53.154;18.136;2023-02-12T01:56:47;102626.41;;;-1.62;100.00
25869;BME280;13688;53.154;18.136;2023-02-12T02:02:10;102621.98;;;-1.69;100.00
25869;BME280;13688;53.154;18.136;2023-02-12T02:07:33;102629.02;;;-1.70;100.00
25869;BME280;13688;53.154;18.136;2023-02-12T02:12:57;102637.80;;;-1.66;100.00
25869;BME280;13688;53.154;18.136;2023-02-12T02:18:55;102650.11;;;-1.65;100.00
25869;BME280;13688;53.154;18.136;2023-02-12T02:30:22;102651.91;;;-1.57;100.00
25869;BME280;13688;53.154;18.136;2023-02-12T02:47:28;102671.21;;;-1.65;100.00
25869;BME280;13688;53.154;18.136;2023-02-12T02:52:56;102686.11;;;-1.77;100.00
25869;BME280;13688;53.154;18.136;2023-02-12T02:58:19;102684.30;;;-1.91;100.00
25869;BME280;13688;53.154;18.136;2023-02-12T03:09:33;102691.28;;;-1.98;100.00
25869;BME280;13688;53.154;18.136;2023-02-12T03:15:19;102696.55;;;-1.99;100.00
25869;BME280;13688;53.154;18.136;2023-02-12T03:20:58;102705.30;;;-2.04;100.00
25869;BME280;13688;53.154;18.136;2023-02-12T03:26:22;102719.06;;;-2.46;100.00
25869;BME280;13688;53.154;18.136;2023-02-12T03:32:06;102724.16;;;-2.69;100.00
25869;BME280;13688;53.154;18.136;2023-02-12T03:37:37;102730.83;;;-3.03;100.00
25869;BME280;13688;53.154;18.136;2023-02-12T03:48:58;102751.08;;;-2.96;100.00
25869;BME280;13688;53.154;18.136;2023-02-12T03:54:26;102757.87;;;-3.18;100.00
25869;BME280;13688;53.154;18.136;2023-02-12T03:59:49;102752.39;;;-3.36;100.00
25869;BME280;13688;53.154;18.136;2023-02-12T04:05:27;102769.32;;;-3.11;100.00
25869;BME280;13688;53.154;18.136;2023-02-12T04:16:46;102776.22;;;-3.22;100.00
25869;BME280;13688;53.154;18.136;2023-02-12T04:22:53;102788.28;;;-3.38;100.00
25869;BME280;13688;53.154;18.136;2023-02-12T04:28:36;102791.52;;;-3.59;100.00
25869;BME280;13688;53.154;18.136;2023-02-12T04:34:30;102804.23;;;-3.88;100.00
25869;BME280;13688;53.154;18.136;2023-02-12T04:39:51;102794.57;;;-3.90;100.00
25869;BME280;13688;53.154;18.136;2023-02-12T04:45:23;102802.45;;;-3.90;100.00
25869;BME280;13688;53.154;18.136;2023-02-12T04:50:47;102808.00;;;-3.70;100.00
25869;BME280;13688;53.154;18.136;2023-02-12T04:56:10;102816.42;;;-3.94;100.00
25869;BME280;13688;53.154;18.136;2023-02-12T05:01:33;102814.70;;;-3.92;100.00
25869;BME280;13688;53.154;18.136;2023-02-12T05:06:56;102818.24;;;-3.89;100.00
25869;BME280;13688;53.154;18.136;2023-02-12T05:12:19;102826.72;;;-4.07;100.00
25869;BME280;13688;53.154;18.136;2023-02-12T05:17:41;102824.64;;;-4.26;100.00
25869;BME280;13688;53.154;18.136;2023-02-12T05:23:03;102841.34;;;-4.24;100.00
25869;BME280;13688;53.154;18.136;2023-02-12T05:28:26;102844.61;;;-3.84;100.00
25869;BME280;13688;53.154;18.136;2023-02-12T05:33:49;102851.56;;;-3.86;100.00
25869;BME280;13688;53.154;18.136;2023-02-12T05:39:12;102875.77;;;-4.06;100.00
25869;BME280;13688;53.154;18.136;2023-02-12T05:44:34;102875.86;;;-4.01;100.00
25869;BME280;13688;53.154;18.136;2023-02-12T05:49:57;102884.45;;;-4.11;100.00
25869;BME280;13688;53.154;18.136;2023-02-12T05:55:20;102891.95;;;-4.33;100.00
25869;BME280;13688;53.154;18.136;2023-02-12T06:00:42;102886.68;;;-4.34;100.00
25869;BME280;13688;53.154;18.136;2023-02-12T06:06:04;102892.28;;;-4.14;100.00
25869;BME280;13688;53.154;18.136;2023-02-12T06:11:27;102902.14;;;-4.01;100.00
25869;BME280;13688;53.154;18.136;2023-02-12T06:16:51;102908.32;;;-3.97;100.00
25869;BME280;13688;53.154;18.136;2023-02-12T06:22:15;102901.94;;;-4.13;100.00
25869;BME280;13688;53.154;18.136;2023-02-12T06:27:37;102911.56;;;-4.14;100.00
25869;BME280;13688;53.154;18.136;2023-02-12T06:32:59;102919.91;;;-4.35;100.00
25869;BME280;13688;53.154;18.136;2023-02-12T06:38:21;102918.44;;;-4.20;100.00
25869;BME280;13688;53.154;18.136;2023-02-12T06:43:44;102915.68;;;-4.26;100.00
25869;BME280;13688;53.154;18.136;2023-02-12T06:49:06;102924.40;;;-4.29;100.00
25869;BME280;13688;53.154;18.136;2023-02-12T06:54:28;102929.99;;;-4.11;100.00
25869;BME280;13688;53.154;18.136;2023-02-12T06:59:51;102932.85;;;-3.97;100.00
25869;BME280;13688;53.154;18.136;2023-02-12T07:05:13;102935.45;;;-3.98;100.00
25869;BME280;13688;53.154;18.136;2023-02-12T07:10:36;102938.56;;;-3.71;100.00
25869;BME280;13688;53.154;18.136;2023-02-12T07:16:06;102941.49;;;-3.53;100.00
25869;BME280;13688;53.154;18.136;2023-02-12T07:21:29;102947.66;;;-3.51;100.00
25869;BME280;13688;53.154;18.136;2023-02-12T07:26:52;102954.77;;;-3.45;100.00
25869;BME280;13688;53.154;18.136;2023-02-12T07:32:14;102962.37;;;-3.06;100.00
25869;BME280;13688;53.154;18.136;2023-02-12T07:37:38;102968.05;;;-2.75;100.00
25869;BME280;13688;53.154;18.136;2023-02-12T07:43:01;102973.65;;;-2.51;100.00
25869;BME280;13688;53.154;18.136;2023-02-12T07:48:23;102985.42;;;-2.20;100.00
25869;BME280;13688;53.154;18.136;2023-02-12T07:53:46;102985.72;;;-1.92;100.00
25869;BME280;13688;53.154;18.136;2023-02-12T07:59:15;102995.59;;;-1.71;100.00
25869;BME280;13688;53.154;18.136;2023-02-12T08:04:38;102987.78;;;-1.59;100.00
25869;BME280;13688;53.154;18.136;2023-02-12T08:10:00;103002.89;;;-1.40;100.00
25869;BME280;13688;53.154;18.136;2023-02-12T08:15:23;102999.59;;;-1.14;100.00
25869;BME280;13688;53.154;18.136;2023-02-12T08:20:46;102988.28;;;-0.92;100.00
25869;BME280;13688;53.154;18.136;2023-02-12T08:26:18;102981.30;;;-0.78;100.00
25869;BME280;13688;53.154;18.136;2023-02-12T08:31:44;102996.41;;;-0.57;100.00
25869;BME280;13688;53.154;18.136;2023-02-12T08:37:09;102999.98;;;-0.44;100.00
25869;BME280;13688;53.154;18.136;2023-02-12T08:42:32;102995.65;;;-0.28;100.00
25869;BME280;13688;53.154;18.136;2023-02-12T08:47:55;103003.64;;;-0.06;100.00
25869;BME280;13688;53.154;18.136;2023-02-12T08:53:17;102997.52;;;0.12;100.00
25869;BME280;13688;53.154;18.136;2023-02-12T08:58:41;102999.28;;;0.28;100.00
25869;BME280;13688;53.154;18.136;2023-02-12T09:04:04;102997.55;;;0.46;100.00
25869;BME280;13688;53.154;18.136;2023-02-12T09:09:30;103001.98;;;0.70;100.00
25869;BME280;13688;53.154;18.136;2023-02-12T09:14:52;103009.91;;;0.91;100.00
25869;BME280;13688;53.154;18.136;2023-02-12T09:20:15;103002.80;;;1.05;100.00
25869;BME280;13688;53.154;18.136;2023-02-12T09:25:38;103008.14;;;0.90;100.00
25869;BME280;13688;53.154;18.136;2023-02-12T09:31:09;102989.61;;;0.87;100.00
25869;BME280;13688;53.154;18.136;2023-02-12T09:36:32;102987.84;;;0.89;100.00
25869;BME280;13688;53.154;18.136;2023-02-12T09:47:56;103007.24;;;0.93;100.00
25869;BME280;13688;53.154;18.136;2023-02-12T09:53:31;103015.16;;;1.12;95.89
25869;BME280;13688;53.154;18.136;2023-02-12T09:59:00;103024.89;;;1.10;92.19
25869;BME280;13688;53.154;18.136;2023-02-12T10:04:23;103016.95;;;1.03;90.16
25869;BME280;13688;53.154;18.136;2023-02-12T10:10:13;103013.39;;;1.13;89.14
25869;BME280;13688;53.154;18.136;2023-02-12T10:27:38;103021.35;;;1.18;88.24
25869;BME280;13688;53.154;18.136;2023-02-12T10:33:08;103002.81;;;1.08;88.88
25869;BME280;13688;53.154;18.136;2023-02-12T10:38:37;103008.98;;;1.17;89.89
25869;BME280;13688;53.154;18.136;2023-02-12T10:44:03;102995.66;;;1.39;90.67
25869;BME280;13688;53.154;18.136;2023-02-12T10:49:26;102990.38;;;1.38;90.61
25869;BME280;13688;53.154;18.136;2023-02-12T10:54:51;102985.92;;;1.43;90.49
25869;BME280;13688;53.154;18.136;2023-02-12T11:05:47;102992.07;;;1.53;90.54
25869;BME280;13688;53.154;18.136;2023-02-12T11:11:19;103000.92;;;1.55;90.65
25869;BME280;13688;53.154;18.136;2023-02-12T11:16:55;102998.19;;;1.70;91.03
25869;BME280;13688;53.154;18.136;2023-02-12T11:22:19;102990.17;;;1.85;91.37
25869;BME280;13688;53.154;18.136;2023-02-12T11:27:42;102982.22;;;1.81;91.27
25869;BME280;13688;53.154;18.136;2023-02-12T11:38:59;102978.67;;;1.86;91.55
25869;BME280;13688;53.154;18.136;2023-02-12T11:44:41;102977.74;;;1.95;91.81
25869;BME280;13688;53.154;18.136;2023-02-12T11:50:19;102965.31;;;2.03;92.09
25869;BME280;13688;53.154;18.136;2023-02-12T11:55:43;102964.42;;;2.04;92.18
25869;BME280;13688;53.154;18.136;2023-02-12T12:01:18;102959.91;;;2.12;92.37
25869;BME280;13688;53.154;18.136;2023-02-12T12:18:39;102949.23;;;2.21;93.29
25869;BME280;13688;53.154;18.136;2023-02-12T12:59:52;102898.56;;;2.52;97.20
25869;BME280;13688;53.154;18.136;2023-02-12T13:05:32;102902.04;;;2.57;98.09
25869;BME280;13688;53.154;18.136;2023-02-12T13:17:08;102915.31;;;2.57;100.00
25869;BME280;13688;53.154;18.136;2023-02-12T13:22:47;102902.90;;;2.59;100.00
25869;BME280;13688;53.154;18.136;2023-02-12T13:28:28;102906.41;;;2.64;100.00
25869;BME280;13688;53.154;18.136;2023-02-12T13:34:10;102894.86;;;2.67;100.00
25869;BME280;13688;53.154;18.136;2023-02-12T13:39:53;102877.92;;;2.80;100.00
25869;BME280;13688;53.154;18.136;2023-02-12T13:51:27;102860.20;;;2.77;100.00
25869;BME280;13688;53.154;18.136;2023-02-12T13:57:08;102866.34;;;2.84;100.00
25869;BME280;13688;53.154;18.136;2023-02-12T14:02:40;102866.30;;;2.87;100.00
25869;BME280;13688;53.154;18.136;2023-02-12T14:08:04;102859.20;;;2.91;100.00
25869;BME280;13688;53.154;18.136;2023-02-12T14:13:29;102858.27;;;2.93;100.00
25869;BME280;13688;53.154;18.136;2023-02-12T14:24:57;102867.12;;;2.94;100.00
25869;BME280;13688;53.154;18.136;2023-02-12T14:36:44;102879.45;;;2.98;100.00
25869;BME280;13688;53.154;18.136;2023-02-12T14:47:50;102863.50;;;3.01;100.00
25869;BME280;13688;53.154;18.136;2023-02-12T14:53:22;102866.11;;;3.04;100.00
25869;BME280;13688;53.154;18.136;2023-02-12T14:58:50;102868.77;;;3.04;100.00
25869;BME280;13688;53.154;18.136;2023-02-12T15:04:20;102871.41;;;3.05;100.00
25869;BME280;13688;53.154;18.136;2023-02-12T15:09:57;102880.28;;;3.04;100.00
25869;BME280;13688;53.154;18.136;2023-02-12T15:15:27;102870.55;;;3.03;100.00
25869;BME280;13688;53.154;18.136;2023-02-12T15:26:46;102856.43;;;3.00;100.00
25869;BME280;13688;53.154;18.136;2023-02-12T15:32:26;102866.17;;;2.98;100.00
25869;BME280;13688;53.154;18.136;2023-02-12T15:37:50;102869.80;;;2.92;100.00
25869;BME280;13688;53.154;18.136;2023-02-12T15:43:20;102870.68;;;2.93;100.00
25869;BME280;13688;53.154;18.136;2023-02-12T15:48:57;102871.48;;;2.98;100.00
25869;BME280;13688;53.154;18.136;2023-02-12T15:54:22;102877.73;;;2.95;100.00
25869;BME280;13688;53.154;18.136;2023-02-12T15:59:52;102863.45;;;3.04;100.00
25869;BME280;13688;53.154;18.136;2023-02-12T16:05:19;102864.30;;;3.09;100.00
25869;BME280;13688;53.154;18.136;2023-02-12T16:10:46;102865.19;;;3.06;100.00
25869;BME280;13688;53.154;18.136;2023-02-12T16:16:16;102868.83;;;2.98;100.00
25869;BME280;13688;53.154;18.136;2023-02-12T16:21:42;102856.42;;;2.98;100.00
25869;BME280;13688;53.154;18.136;2023-02-12T16:27:31;102849.12;;;3.15;100.00
25869;BME280;13688;53.154;18.136;2023-02-12T16:32:56;102850.78;;;3.24;100.00
25869;BME280;13688;53.154;18.136;2023-02-12T16:38:57;102851.69;;;3.23;100.00
25869;BME280;13688;53.154;18.136;2023-02-12T16:44:26;102859.80;;;3.12;100.00
25869;BME280;13688;53.154;18.136;2023-02-12T16:49:56;102863.38;;;3.08;100.00
25869;BME280;13688;53.154;18.136;2023-02-12T16:55:20;102864.30;;;3.09;100.00
25869;BME280;13688;53.154;18.136;2023-02-12T17:00:45;102866.04;;;3.08;100.00
25869;BME280;13688;53.154;18.136;2023-02-12T17:06:08;102873.09;;;3.12;100.00
25869;BME280;13688;53.154;18.136;2023-02-12T17:11:33;102863.15;;;3.27;100.00
25869;BME280;13688;53.154;18.136;2023-02-12T17:16:55;102872.77;;;3.37;100.00
25869;BME280;13688;53.154;18.136;2023-02-12T17:22:21;102874.57;;;3.35;100.00
25869;BME280;13688;53.154;18.136;2023-02-12T17:27:45;102867.45;;;3.38;100.00
25869;BME280;13688;53.154;18.136;2023-02-12T17:33:08;102876.25;;;3.42;100.00
25869;BME280;13688;53.154;18.136;2023-02-12T17:38:31;102875.47;;;3.34;100.00
25869;BME280;13688;53.154;18.136;2023-02-12T17:43:54;102864.86;;;3.32;100.00
25869;BME280;13688;53.154;18.136;2023-02-12T17:49:16;102858.64;;;3.33;100.00
25869;BME280;13688;53.154;18.136;2023-02-12T17:54:39;102863.11;;;3.31;100.00
25869;BME280;13688;53.154;18.136;2023-02-12T18:00:04;102848.88;;;3.34;100.00
25869;BME280;13688;53.154;18.136;2023-02-12T18:05:28;102848.88;;;3.34;100.00
25869;BME280;13688;53.154;18.136;2023-02-12T18:10:52;102837.38;;;3.33;100.00
25869;BME280;13688;53.154;18.136;2023-02-12T18:16:16;102837.38;;;3.33;100.00
25869;BME280;13688;53.154;18.136;2023-02-12T18:21:40;102842.73;;;3.30;100.00
25869;BME280;13688;53.154;18.136;2023-02-12T18:27:02;102841.00;;;3.26;100.00
25869;BME280;13688;53.154;18.136;2023-02-12T18:32:25;102838.38;;;3.25;100.00
25869;BME280;13688;53.154;18.136;2023-02-12T18:37:49;102841.89;;;3.28;100.00
25869;BME280;13688;53.154;18.136;2023-02-12T18:43:12;102841.84;;;3.31;100.00
25869;BME280;13688;53.154;18.136;2023-02-12T18:48:34;102851.59;;;3.31;100.00
25869;BME280;13688;53.154;18.136;2023-02-12T18:54:02;102854.23;;;3.32;100.00
25869;BME280;13688;53.154;18.136;2023-02-12T18:59:26;102834.71;;;3.33;100.00
25869;BME280;13688;53.154;18.136;2023-02-12T19:04:49;102841.76;;;3.36;100.00
25869;BME280;13688;53.154;18.136;2023-02-12T19:10:12;102834.61;;;3.41;100.00
25869;BME280;13688;53.154;18.136;2023-02-12T19:15:38;102838.09;;;3.44;100.00
25869;BME280;13688;53.154;18.136;2023-02-12T19:21:04;102839.91;;;3.42;100.00
25869;BME280;13688;53.154;18.136;2023-02-12T19:26:27;102845.27;;;3.39;100.00
25869;BME280;13688;53.154;18.136;2023-02-12T19:31:52;102847.88;;;3.42;100.00
25869;BME280;13688;53.154;18.136;2023-02-12T19:37:15;102840.75;;;3.44;100.00
25869;BME280;13688;53.154;18.136;2023-02-12T19:42:37;102848.71;;;3.48;100.00
25869;BME280;13688;53.154;18.136;2023-02-12T19:48:00;102841.61;;;3.48;100.00
25869;BME280;13688;53.154;18.136;2023-02-12T19:53:22;102845.09;;;3.52;100.00
25869;BME280;13688;53.154;18.136;2023-02-12T19:58:44;102843.31;;;3.52;100.00
25869;BME280;13688;53.154;18.136;2023-02-12T20:04:11;102838.94;;;3.47;100.00
25869;BME280;13688;53.154;18.136;2023-02-12T20:09:35;102831.80;;;3.52;100.00
25869;BME280;13688;53.154;18.136;2023-02-12T20:14:59;102834.38;;;3.56;100.00
25869;BME280;13688;53.154;18.136;2023-02-12T20:20:21;102825.44;;;3.62;100.00
25869;BME280;13688;53.154;18.136;2023-02-12T20:25:47;102824.47;;;3.66;100.00
25869;BME280;13688;53.154;18.136;2023-02-12T20:31:15;102830.67;;;3.68;100.00
25869;BME280;13688;53.154;18.136;2023-02-12T20:36:44;102826.23;;;3.68;100.00
25869;BME280;13688;53.154;18.136;2023-02-12T20:42:06;102827.02;;;3.73;100.00
25869;BME280;13688;53.154;18.136;2023-02-12T20:47:29;102817.23;;;3.77;100.00
25869;BME280;13688;53.154;18.136;2023-02-12T20:52:52;102826.03;;;3.81;100.00
25869;BME280;13688;53.154;18.136;2023-02-12T20:58:14;102819.83;;;3.80;100.00
25869;BME280;13688;53.154;18.136;2023-02-12T21:03:38;102813.60;;;3.81;100.00
25869;BME280;13688;53.154;18.136;2023-02-12T21:09:00;102809.09;;;3.85;100.00
25869;BME280;13688;53.154;18.136;2023-02-12T21:14:23;102800.17;;;3.89;100.00
25869;BME280;13688;53.154;18.136;2023-02-12T21:19:47;102808.09;;;3.92;100.00
25869;BME280;13688;53.154;18.136;2023-02-12T21:25:10;102802.78;;;3.92;100.00
25869;BME280;13688;53.154;18.136;2023-02-12T21:30:32;102806.34;;;3.91;100.00
25869;BME280;13688;53.154;18.136;2023-02-12T21:35:54;102811.64;;;3.92;100.00
25869;BME280;13688;53.154;18.136;2023-02-12T21:46:45;102808.22;;;3.84;100.00
25869;BME280;13688;53.154;18.136;2023-02-12T21:52:09;102807.31;;;3.87;100.00
25869;BME280;13688;53.154;18.136;2023-02-12T21:57:32;102812.64;;;3.87;100.00
25869;BME280;13688;53.154;18.136;2023-02-12T22:02:56;102807.40;;;3.81;100.00
25869;BME280;13688;53.154;18.136;2023-02-12T22:08:19;102815.44;;;3.76;100.00
25869;BME280;13688;53.154;18.136;2023-02-12T22:13:42;102819.89;;;3.77;100.00
25869;BME280;13688;53.154;18.136;2023-02-12T22:19:05;102822.60;;;3.72;100.00
25869;BME280;13688;53.154;18.136;2023-02-12T22:24:28;102813.75;;;3.72;100.00
25869;BME280;13688;53.154;18.136;2023-02-12T22:29:52;102823.66;;;3.62;100.00
25869;BME280;13688;53.154;18.136;2023-02-12T22:35:15;102819.20;;;3.63;100.00
25869;BME280;13688;53.154;18.136;2023-02-12T22:40:37;102820.94;;;3.67;100.00
25869;BME280;13688;53.154;18.136;2023-02-12T22:46:00;102819.15;;;3.66;100.00
25869;BME280;13688;53.154;18.136;2023-02-12T22:51:30;102822.66;;;3.69;100.00
25869;BME280;13688;53.154;18.136;2023-02-12T22:56:56;102823.42;;;3.78;100.00
25869;BME280;13688;53.154;18.136;2023-02-12T23:02:19;102816.34;;;3.75;100.00
25869;BME280;13688;53.154;18.136;2023-02-12T23:07:41;102827.89;;;3.74;100.00
25869;BME280;13688;53.154;18.136;2023-02-12T23:13:03;102825.21;;;3.77;100.00
25869;BME280;13688;53.154;18.136;2023-02-12T23:18:28;102816.17;;;3.87;100.00
25869;BME280;13688;53.154;18.136;2023-02-12T23:23:51;102816.11;;;3.90;100.00
25869;BME280;13688;53.154;18.136;2023-02-12T23:29:13;102812.48;;;3.96;100.00
25869;BME280;13688;53.154;18.136;2023-02-12T23:34:36;102811.58;;;3.95;100.00
25869;BME280;13688;53.154;18.136;2023-02-12T23:39:58;102806.16;;;4.01;100.00
25869;BME280;13688;53.154;18.136;2023-02-12T23:45:21;102799.08;;;4.00;100.00
25869;BME280;13688;53.154;18.136;2023-02-12T23:50:45;102794.70;;;3.98;100.00
25869;BME280;13688;53.154;18.136;2023-02-12T23:56:08;102791.06;;;4.02;100.00
